»·PEaware :: N505GH KCCB-CL46

N505GH :: KCCB-CL46

FLIGHT INFORMATION

Flight Status: Arrived
Operator: Privately registered:
United States
More flights under this callsign
Pilot: Gabor H. (24209)
Aircraft: Unknown
(A5)
More flights by this aircraft type
Origin: KCCB Cable
United States
Destination: CL46 Quail Lake Sky Park
Canada
More flights between these airports :: More routes between these airports
Route: +DCT
File this flight plan on PilotEdge
Remarks:
Altitude:
(Current/Filed)
6,500ft
Speed:
(Current/Filed)
140kts
Departed: 09-Jul-19 12:43 PM
Arrived: 09-Jul-19 01:22 PM
Distance/Time
Traveled:
65nm/0:39
Distance/Time
To Go:
Arrived

Flight Plot

Page will automatically refresh every two minutes.

Flight plan parsing failed; only flown route is shown


Map Options




Map Legend


Flown Route
Filed Route
Departure Airport
Arrival Airport
Navaid (VOR, NDB)
Fix

Horizontal Profiles

Position Reports

Time Latitude Longitude Heading Altitude Ground
Speed
09-Jul-19 12:21 34.111249 -117.683935 89 1441ft 0kts
09-Jul-19 12:22 34.111249 -117.683935 89 1441ft 0kts
09-Jul-19 12:23 34.111249 -117.683935 89 1441ft 0kts
09-Jul-19 12:24 34.111249 -117.683935 89 1441ft 0kts
09-Jul-19 12:25 34.111249 -117.683935 89 1441ft 0kts
09-Jul-19 12:26 34.111249 -117.683935 89 1441ft 0kts
09-Jul-19 12:27 34.111249 -117.683935 89 1441ft 0kts
09-Jul-19 12:28 34.111249 -117.683935 89 1441ft 0kts
09-Jul-19 12:29 34.111249 -117.683935 89 1441ft 0kts
09-Jul-19 12:30 34.111249 -117.683935 89 1441ft 0kts
09-Jul-19 12:31 34.111249 -117.683935 89 1441ft 0kts
09-Jul-19 12:32 34.111249 -117.683935 89 1441ft 0kts
09-Jul-19 12:33 34.111249 -117.683935 89 1441ft 0kts
09-Jul-19 12:34 34.111249 -117.683935 89 1441ft 0kts
09-Jul-19 12:35 34.111249 -117.683935 89 1441ft 0kts
09-Jul-19 12:36 34.111249 -117.683935 89 1441ft 0kts
09-Jul-19 12:37 34.111249 -117.683935 89 1441ft 0kts
09-Jul-19 12:38 34.111596 -117.684201 352 1441ft 4kts
09-Jul-19 12:39 34.112610 -117.683169 65 1441ft 7kts
09-Jul-19 12:40 34.113052 -117.681789 68 1441ft 0kts
09-Jul-19 12:41 34.113370 -117.681862 247 1441ft 0kts
09-Jul-19 12:42 34.108687 -117.690895 196 1748ft 73kts
09-Jul-19 12:43 34.119757 -117.676120 353 2659ft 87kts
09-Jul-19 12:44 34.136830 -117.696479 282 3804ft 87kts
09-Jul-19 12:45 34.141842 -117.725448 267 4903ft 85kts
09-Jul-19 12:46 34.142041 -117.754363 266 5800ft 86kts
09-Jul-19 12:47 34.142281 -117.786471 266 6542ft 123kts
09-Jul-19 12:48 34.139331 -117.832055 261 6504ft 138kts
09-Jul-19 12:49 34.135876 -117.877622 268 6502ft 137kts
09-Jul-19 12:50 34.138906 -117.922165 271 6493ft 127kts
09-Jul-19 12:52 34.141653 -117.966418 271 6496ft 144kts
09-Jul-19 12:53 34.149836 -118.013787 282 6492ft 145kts
09-Jul-19 12:54 34.158629 -118.059617 282 6479ft 139kts
09-Jul-19 12:55 34.166626 -118.103268 281 6478ft 128kts
09-Jul-19 12:56 34.174343 -118.145422 281 6498ft 131kts
09-Jul-19 12:57 34.185024 -118.189530 286 6503ft 143kts
09-Jul-19 12:58 34.198429 -118.232520 291 6502ft 144kts
09-Jul-19 12:59 34.213286 -118.276202 291 6516ft 143kts
09-Jul-19 13:00 34.227616 -118.318082 293 6506ft 125kts
09-Jul-19 13:01 34.243760 -118.357740 295 6523ft 142kts
09-Jul-19 13:02 34.260553 -118.398767 295 6543ft 130kts
09-Jul-19 13:03 34.277381 -118.438852 296 6552ft 139kts
09-Jul-19 13:04 34.296623 -118.478563 301 6534ft 135kts
09-Jul-19 13:05 34.320876 -118.514422 314 6518ft 145kts
09-Jul-19 13:06 34.353346 -118.541320 326 6508ft 141kts
09-Jul-19 13:07 34.385580 -118.566742 326 6518ft 139kts
09-Jul-19 13:08 34.416581 -118.591001 328 6523ft 125kts
09-Jul-19 13:09 34.445545 -118.612152 328 6538ft 124kts
09-Jul-19 13:10 34.475386 -118.633919 328 6551ft 126kts
09-Jul-19 13:11 34.505873 -118.656179 328 6566ft 131kts
09-Jul-19 13:12 34.538084 -118.679708 328 6571ft 142kts
09-Jul-19 13:13 34.571668 -118.704228 328 6585ft 143kts
09-Jul-19 13:13 34.598885 -118.724092 328 6590ft 128kts
09-Jul-19 13:15 34.634253 -118.748240 328 5598ft 124kts
09-Jul-19 13:16 34.664883 -118.771496 321 4748ft 138kts
09-Jul-19 13:16 34.689872 -118.793171 321 4616ft 126kts
09-Jul-19 13:17 34.723221 -118.805158 357 4658ft 132kts
09-Jul-19 13:19 34.763186 -118.797698 37 4636ft 116kts
09-Jul-19 13:19 34.773812 -118.775917 99 4365ft 84kts
09-Jul-19 13:20 34.770419 -118.749966 105 3761ft 59kts
09-Jul-19 13:21 34.767900 -118.733348 99 3337ft 9kts
09-Jul-19 13:22 34.768028 -118.735664 206 3337ft 3kts
09-Jul-19 13:23 34.767307 -118.735988 354 3337ft 0kts
09-Jul-19 13:24 34.767307 -118.735988 354 3337ft 0kts
09-Jul-19 13:25 34.767307 -118.735988 354 3337ft 0kts
09-Jul-19 13:26 34.767307 -118.735988 354 3337ft 0kts

Navigation Log

Ident Type
Flight plan parsing failed, navigation log unavailable